Time;durP1;ratioP1;P1;durP2;ratioP2;P2;SDS_P1;SDS_P2;PMS_P1;PMS_P2;Temp;Humidity;BMP_temperature;BMP_pressure;BME280_temperature;BME280_humidity;BME280_pressure;Samples;Min_cycle;Max_cycle;Signal;HPM_P1;HPM_P2
2022/08/03 00:01:49;;;;;;;3.78;2.20;;;;;;;20.26;69.87;94893.88;5013342;28;20622;-75
2022/08/03 00:04:14;;;;;;;9.55;4.50;;;;;;;20.20;70.13;94889.63;5013371;28;20187;-76
2022/08/03 00:06:40;;;;;;;3.55;2.08;;;;;;;20.18;70.04;94897.09;5013033;28;20188;-75
2022/08/03 00:09:05;;;;;;;5.50;3.15;;;;;;;20.16;69.94;94888.53;5013145;28;20649;-75
2022/08/03 00:11:31;;;;;;;3.20;2.08;;;;;;;20.15;70.03;94892.31;5013031;28;20204;-75
2022/08/03 00:13:56;;;;;;;4.25;1.92;;;;;;;20.13;70.43;94889.09;5013069;28;20176;-75
2022/08/03 00:16:24;;;;;;;3.22;2.13;;;;;;;20.09;70.56;94888.03;5013136;28;20180;-75
2022/08/03 00:18:49;;;;;;;7.38;3.83;;;;;;;20.04;70.40;94890.72;4995407;28;20629;-75
2022/08/03 00:21:14;;;;;;;4.47;2.20;;;;;;;20.06;70.52;94888.59;5013148;28;20180;-75
2022/08/03 00:23:40;;;;;;;2.85;2.08;;;;;;;20.04;70.60;94891.50;5012737;28;20227;-75
2022/08/03 00:26:06;;;;;;;9.52;3.28;;;;;;;20.00;70.52;94889.63;5012634;28;20172;-75
2022/08/03 00:28:31;;;;;;;2.60;2.08;;;;;;;20.04;70.78;94890.72;5012714;28;20183;-76
2022/08/03 00:30:57;;;;;;;3.03;2.50;;;;;;;20.06;70.62;94894.72;5012705;28;20311;-75
2022/08/03 00:33:22;;;;;;;5.70;2.53;;;;;;;20.02;70.68;94887.50;5012602;28;20579;-76
2022/08/03 00:35:48;;;;;;;6.13;2.60;;;;;;;20.05;69.99;94892.31;5012589;28;20185;-76
2022/08/03 00:38:13;;;;;;;6.30;2.20;;;;;;;19.98;70.59;94887.22;5012405;28;20286;-76
2022/08/03 00:40:39;;;;;;;2.55;2.20;;;;;;;20.01;70.25;94886.69;5012957;28;20706;-75
2022/08/03 00:43:07;;;;;;;6.07;2.10;;;;;;;19.99;70.70;94883.47;5012410;28;20183;-76
2022/08/03 00:45:35;;;;;;;6.53;2.30;;;;;;;19.94;70.50;94886.16;5012502;28;20180;-75
2022/08/03 00:48:02;;;;;;;3.17;2.20;;;;;;;19.88;70.74;94884.59;5012401;28;20259;-75
2022/08/03 00:50:30;;;;;;;2.72;2.08;;;;;;;19.84;70.79;94891.50;5012208;28;20235;-75
2022/08/03 00:52:58;;;;;;;2.42;2.00;;;;;;;19.83;70.85;94889.91;5012285;28;20193;-75
2022/08/03 00:55:24;;;;;;;8.85;3.22;;;;;;;19.80;70.73;94877.91;5012242;28;20172;-76
2022/08/03 00:57:50;;;;;;;8.85;4.40;;;;;;;19.77;71.19;94883.78;5012103;28;20242;-75
2022/08/03 01:00:19;;;;;;;5.43;3.40;;;;;;;19.75;71.13;94885.09;5012075;28;20650;-75
2022/08/03 01:02:45;;;;;;;8.70;4.57;;;;;;;19.69;71.20;94876.28;5012188;28;20172;-75
2022/08/03 01:05:11;;;;;;;3.95;2.13;;;;;;;19.57;71.02;94859.72;5011908;28;20238;-75
2022/08/03 01:07:45;;;;;;;6.53;3.78;;;;;;;19.70;70.84;94877.91;5011766;28;20185;-76
2022/08/03 01:10:34;;;;;;;4.07;2.25;;;;;;;19.69;71.83;94884.31;5011905;28;20243;-75
2022/08/03 01:13:18;;;;;;;10.82;5.18;;;;;;;19.65;71.48;94882.41;5004760;28;20566;-76
2022/08/03 01:15:53;;;;;;;8.68;3.28;;;;;;;19.64;71.64;94880.81;5011664;28;20184;-76
2022/08/03 01:18:34;;;;;;;3.30;1.77;;;;;;;19.40;70.57;94851.13;5011976;28;20922;-75
2022/08/03 01:21:07;;;;;;;2.95;2.05;;;;;;;19.23;70.83;94833.50;5011808;28;20268;-75
2022/08/03 01:24:10;;;;;;;5.63;1.90;;;;;;;19.47;71.04;94875.69;4994245;28;20220;-76
2022/08/03 01:26:52;;;;;;;5.93;3.60;;;;;;;19.47;71.51;94871.19;4932137;29;20187;-75
2022/08/03 01:29:49;;;;;;;8.05;3.90;;;;;;;19.51;71.11;94871.47;4932067;29;20601;-75
2022/08/03 01:32:19;;;;;;;5.05;2.17;;;;;;;19.18;71.15;94835.38;4994300;28;20259;-75
2022/08/03 01:35:00;;;;;;;2.58;1.92;;;;;;;19.41;70.98;94890.13;5011905;28;20279;-75
2022/08/03 01:37:35;;;;;;;3.65;2.05;;;;;;;19.38;71.62;94877.28;5005240;28;20192;-75
2022/08/03 01:40:04;;;;;;;3.38;1.80;;;;;;;19.38;71.48;94878.09;5011707;28;20693;-75
2022/08/03 01:42:31;;;;;;;4.80;2.20;;;;;;;19.31;71.44;94871.41;5011340;28;20184;-75
2022/08/03 01:44:59;;;;;;;3.35;2.30;;;;;;;19.45;71.30;94880.53;5011268;28;20199;-75
2022/08/03 01:47:27;;;;;;;3.17;2.08;;;;;;;19.34;70.86;94870.88;5011127;28;20172;-75
2022/08/03 01:49:55;;;;;;;3.63;2.20;;;;;;;19.44;71.21;94878.91;5011114;28;20183;-75
2022/08/03 01:52:21;;;;;;;6.15;2.22;;;;;;;19.42;71.10;94881.84;5010848;28;20204;-75
2022/08/03 01:54:50;;;;;;;3.30;1.88;;;;;;;19.41;71.53;94879.44;5011027;28;20688;-75
2022/08/03 01:57:18;;;;;;;3.35;2.40;;;;;;;19.14;71.59;94851.09;5010732;28;20180;-75
2022/08/03 01:59:47;;;;;;;4.60;2.22;;;;;;;19.29;71.50;94884.22;5010687;28;20238;-75
2022/08/03 02:02:15;;;;;;;2.05;1.75;;;;;;;19.28;71.76;94880.75;5010672;28;20262;-75
2022/08/03 02:04:44;;;;;;;3.10;1.60;;;;;;;19.30;71.61;94877.81;5010661;28;20263;-75
2022/08/03 02:07:10;;;;;;;6.03;1.80;;;;;;;19.34;71.48;94881.56;5010981;28;20176;-75
2022/08/03 02:09:38;;;;;;;3.65;1.70;;;;;;;19.33;71.45;94886.09;5010703;28;20187;-75
2022/08/03 02:12:08;;;;;;;7.40;1.92;;;;;;;19.32;71.77;94884.50;5010418;28;20207;-75
2022/08/03 02:14:35;;;;;;;2.17;1.70;;;;;;;19.21;71.42;94866.84;5010952;28;20187;-75
2022/08/03 02:17:02;;;;;;;2.20;2.00;;;;;;;19.19;71.86;94863.66;5010761;28;20241;-75
2022/08/03 02:19:29;;;;;;;3.53;2.00;;;;;;;19.31;72.08;94880.22;5010779;28;20255;-75
2022/08/03 02:21:57;;;;;;;1.83;1.58;;;;;;;19.04;71.92;94839.59;4993199;28;20599;-75
2022/08/03 02:24:22;;;;;;;1.95;1.83;;;;;;;19.10;72.13;94850.03;5010605;28;20216;-75
2022/08/03 02:26:51;;;;;;;2.10;1.90;;;;;;;19.22;72.46;94882.59;5010548;28;20656;-75
2022/08/03 02:29:21;;;;;;;1.80;1.70;;;;;;;19.21;72.16;94886.34;5010616;28;20601;-75
2022/08/03 02:31:48;;;;;;;3.78;2.03;;;;;;;19.11;72.19;94872.19;5010638;28;20204;-75
2022/08/03 02:34:15;;;;;;;2.40;1.70;;;;;;;19.13;72.39;94878.03;5010585;28;20184;-75
2022/08/03 02:36:45;;;;;;;5.57;1.90;;;;;;;19.11;73.22;94880.19;5010543;28;20721;-75
2022/08/03 02:39:15;;;;;;;3.70;1.85;;;;;;;19.11;73.20;94878.28;5010709;28;20184;-75
2022/08/03 02:41:54;;;;;;;2.58;1.70;;;;;;;19.10;73.21;94875.91;5010624;28;20181;-75
2022/08/03 02:44:24;;;;;;;4.85;1.63;;;;;;;19.10;72.99;94876.72;5010528;28;20576;-75
2022/08/03 02:46:54;;;;;;;2.05;1.60;;;;;;;19.08;72.91;94873.50;5010430;28;20176;-75
2022/08/03 02:49:20;;;;;;;3.53;1.98;;;;;;;19.09;73.04;94871.63;5010731;28;20642;-75
2022/08/03 02:51:46;;;;;;;2.00;1.70;;;;;;;19.06;73.00;94875.63;5010636;28;20205;-75
2022/08/03 02:54:16;;;;;;;3.35;2.03;;;;;;;18.87;73.38;94844.34;5010604;28;20239;-75
2022/08/03 02:56:44;;;;;;;2.85;2.05;;;;;;;18.99;73.36;94868.94;5010483;28;20181;-75
2022/08/03 02:59:11;;;;;;;3.22;2.00;;;;;;;18.79;73.37;94843.78;5010347;28;20720;-75
2022/08/03 03:01:38;;;;;;;3.03;2.20;;;;;;;18.94;73.38;94884.94;5010439;28;20248;-75
2022/08/03 03:04:04;;;;;;;2.83;1.95;;;;;;;18.91;73.41;94880.94;5010430;28;20701;-75
2022/08/03 03:06:30;;;;;;;2.88;2.22;;;;;;;18.87;73.92;94890.50;5010192;28;20262;-75
2022/08/03 03:08:56;;;;;;;4.30;2.38;;;;;;;18.84;74.14;94888.38;5010427;28;20204;-75
2022/08/03 03:11:24;;;;;;;5.40;2.35;;;;;;;18.82;74.14;94901.16;5010669;28;20195;-76
2022/08/03 03:13:50;;;;;;;4.25;2.92;;;;;;;18.53;74.58;94855.41;5006465;28;20187;-76
2022/08/03 03:16:17;;;;;;;5.72;2.63;;;;;;;18.79;74.14;94899.00;5010590;28;20896;-76
2022/08/03 03:18:44;;;;;;;5.78;2.80;;;;;;;18.73;73.67;94895.53;5010597;28;20191;-76
2022/08/03 03:21:11;;;;;;;4.68;2.95;;;;;;;18.69;73.54;94901.63;4993129;28;20184;-76
2022/08/03 03:23:39;;;;;;;7.05;2.97;;;;;;;18.63;74.00;94908.00;5004882;28;20216;-76
2022/08/03 03:26:06;;;;;;;2.33;2.03;;;;;;;18.62;73.98;94901.88;5014240;28;20180;-76
2022/08/03 03:28:32;;;;;;;5.32;3.05;;;;;;;18.38;73.62;94869.47;5014066;28;20191;-75
2022/08/03 03:30:59;;;;;;;3.28;1.73;;;;;;;18.56;73.58;94912.75;5014241;28;20184;-75
2022/08/03 03:33:25;;;;;;;6.22;2.15;;;;;;;18.55;74.02;94914.59;5013828;28;21055;-75
2022/08/03 03:35:51;;;;;;;5.18;2.20;;;;;;;18.57;73.95;94911.72;5014049;28;20279;-75
2022/08/03 03:38:18;;;;;;;7.05;2.35;;;;;;;18.52;74.21;94908.97;5012914;28;20251;-76
2022/08/03 03:40:44;;;;;;;2.90;1.80;;;;;;;18.50;74.12;94913.78;5010860;28;20470;-76
2022/08/03 03:43:10;;;;;;;16.88;2.53;;;;;;;18.55;74.47;94921.78;5015249;28;20184;-75
2022/08/03 03:45:36;;;;;;;5.63;2.33;;;;;;;18.35;74.37;94885.97;5013626;28;20180;-76
2022/08/03 03:48:06;;;;;;;5.50;2.10;;;;;;;18.52;74.26;94914.31;5013552;28;20203;-74
2022/08/03 03:50:33;;;;;;;6.72;2.75;;;;;;;18.71;74.42;94926.97;5013111;28;20561;-75
2022/08/03 03:52:59;;;;;;;4.78;2.00;;;;;;;18.68;74.08;94910.72;5007251;28;20284;-75
2022/08/03 03:55:24;;;;;;;3.33;2.22;;;;;;;18.85;73.68;94928.09;5006187;28;20270;-75
2022/08/03 03:57:50;;;;;;;12.20;2.83;;;;;;;18.93;73.68;94929.50;5003626;28;20267;-75
2022/08/03 04:00:17;;;;;;;12.80;6.47;;;;;;;18.99;73.55;94939.13;5004857;28;20190;-75
2022/08/03 04:02:44;;;;;;;4.57;3.35;;;;;;;19.08;72.83;94926.06;5001992;28;21285;-75
2022/08/03 04:11:00;;;;;;;8.68;4.28;;;;;;;19.17;70.96;94884.47;5010224;28;20187;-75
2022/08/03 04:13:57;;;;;;;7.78;4.00;;;;;;;19.50;71.12;94921.41;5011745;28;20235;-75
2022/08/03 04:16:30;;;;;;;8.15;2.90;;;;;;;19.59;70.92;94903.00;5008221;28;20193;-75
2022/08/03 04:19:03;;;;;;;10.93;4.07;;;;;;;19.90;70.56;94928.66;5011740;28;20230;-75
2022/08/03 04:21:30;;;;;;;7.30;3.28;;;;;;;20.00;69.28;94933.19;5011082;28;20183;-75
2022/08/03 04:24:00;;;;;;;4.55;2.83;;;;;;;20.16;69.37;94929.44;5012196;28;20227;-74
2022/08/03 04:26:30;;;;;;;9.40;2.95;;;;;;;20.36;68.51;94927.84;5011955;28;20674;-75
2022/08/03 04:28:57;;;;;;;2.78;2.33;;;;;;;20.57;67.49;94924.09;5012376;28;20176;-75
2022/08/03 04:31:24;;;;;;;5.22;2.90;;;;;;;20.78;66.65;94922.94;5012482;28;20556;-74
2022/08/03 04:33:52;;;;;;;8.65;3.38;;;;;;;20.92;66.55;94923.97;5011743;28;20594;-75
2022/08/03 04:36:22;;;;;;;10.55;2.65;;;;;;;21.14;66.81;94928.16;5012025;28;20227;-75
2022/08/03 04:39:12;;;;;;;5.10;2.60;;;;;;;21.37;65.49;94938.25;5010883;28;20246;-75
2022/08/03 04:41:38;;;;;;;4.55;2.80;;;;;;;21.56;64.71;94928.50;5011855;28;20231;-75
2022/08/03 04:44:05;;;;;;;6.90;2.55;;;;;;;21.72;64.54;94937.22;5012328;28;20214;-75
2022/08/03 04:46:37;;;;;;;4.55;2.33;;;;;;;21.71;63.24;94904.28;5011607;28;20960;-74
2022/08/03 04:49:04;;;;;;;5.97;3.08;;;;;;;22.11;62.72;94934.59;5011754;28;20180;-75
2022/08/03 04:51:30;;;;;;;3.15;2.30;;;;;;;22.34;63.48;94938.41;5011860;28;20188;-75
2022/08/03 04:53:56;;;;;;;3.72;2.28;;;;;;;22.55;61.60;94946.00;5011839;28;20176;-75
2022/08/03 04:56:21;;;;;;;3.00;2.60;;;;;;;22.76;60.14;94946.59;5012481;28;20291;-75
2022/08/03 04:58:47;;;;;;;4.57;2.33;;;;;;;22.89;60.65;94948.63;5011629;28;20193;-75
2022/08/03 05:01:13;;;;;;;3.83;2.20;;;;;;;23.08;59.80;94959.41;4993145;28;20591;-75
2022/08/03 05:03:39;;;;;;;6.35;3.13;;;;;;;23.26;60.05;94955.94;5010293;28;20177;-75
2022/08/03 05:06:05;;;;;;;7.10;2.60;;;;;;;23.44;59.52;94962.44;5010224;28;20184;-74
2022/08/03 05:08:30;;;;;;;7.43;3.25;;;;;;;23.57;59.34;94956.41;5010578;28;20567;-74
2022/08/03 05:10:57;;;;;;;5.22;2.88;;;;;;;23.74;58.23;94961.28;5010452;28;20169;-74
2022/08/03 05:13:22;;;;;;;3.25;2.78;;;;;;;23.96;57.17;94958.00;4992347;28;20640;-74
2022/08/03 05:15:48;;;;;;;4.05;2.25;;;;;;;24.16;56.35;94965.75;5010384;28;20180;-74
2022/08/03 05:18:13;;;;;;;6.05;2.25;;;;;;;24.24;55.92;94958.94;5011112;28;20188;-74
2022/08/03 05:20:39;;;;;;;8.65;2.45;;;;;;;24.47;55.56;94974.19;5011151;28;20181;-74
2022/08/03 05:23:05;;;;;;;3.60;2.30;;;;;;;24.56;56.28;94974.31;5011047;28;20571;-74
2022/08/03 05:25:31;;;;;;;2.85;2.28;;;;;;;24.68;54.49;94971.91;5011173;28;20180;-74
2022/08/03 05:27:56;;;;;;;4.55;2.30;;;;;;;24.78;54.30;94975.25;4993487;28;20590;-74
2022/08/03 05:30:22;;;;;;;5.90;2.30;;;;;;;24.87;53.39;94961.09;5011269;28;20173;-74
2022/08/03 05:32:47;;;;;;;3.00;2.33;;;;;;;25.01;52.31;94978.88;5010900;28;20197;-74
2022/08/03 05:35:13;;;;;;;7.38;3.35;;;;;;;25.20;54.01;94981.50;5011532;28;20188;-75
2022/08/03 05:37:38;;;;;;;8.35;2.72;;;;;;;25.32;52.84;94954.84;5010982;28;20172;-76
2022/08/03 05:40:04;;;;;;;8.75;2.50;;;;;;;25.75;52.12;94982.28;5010964;28;20264;-76
2022/08/03 05:42:30;;;;;;;6.45;3.38;;;;;;;25.84;51.50;94972.38;5011058;28;20172;-76
2022/08/03 05:44:55;;;;;;;4.10;2.72;;;;;;;26.14;51.01;94978.94;5010112;28;20172;-76
2022/08/03 05:47:21;;;;;;;7.22;2.45;;;;;;;26.03;49.94;94971.41;5011027;28;20168;-76
2022/08/03 05:49:46;;;;;;;5.70;2.60;;;;;;;26.01;51.43;94949.31;5010974;28;20172;-76
2022/08/03 05:52:11;;;;;;;3.28;2.25;;;;;;;26.29;50.20;94967.03;5010962;28;20272;-76
2022/08/03 05:54:37;;;;;;;4.80;2.50;;;;;;;26.63;49.49;94988.88;5010623;28;20180;-75
2022/08/03 05:57:02;;;;;;;8.57;3.38;;;;;;;26.78;47.89;94982.28;5010751;28;20196;-76
2022/08/03 05:59:28;;;;;;;12.73;7.40;;;;;;;26.97;48.72;94977.50;5010737;28;20178;-76
2022/08/03 06:01:53;;;;;;;11.55;5.47;;;;;;;27.15;48.36;94982.97;5010784;28;20204;-76
2022/08/03 06:04:18;;;;;;;5.97;2.83;;;;;;;27.13;48.45;94979.78;5011203;28;20173;-76
2022/08/03 06:06:44;;;;;;;5.25;3.20;;;;;;;27.23;47.00;94988.41;5010843;28;20180;-77
2022/08/03 06:09:09;;;;;;;7.82;3.28;;;;;;;27.24;47.28;94975.69;5010984;28;20192;-76
2022/08/03 06:11:36;;;;;;;4.53;3.55;;;;;;;27.62;46.41;94989.50;5010832;28;20188;-76
2022/08/03 06:14:02;;;;;;;8.60;3.90;;;;;;;27.76;45.88;94990.97;5009183;28;20242;-76
2022/08/03 06:16:27;;;;;;;5.47;3.00;;;;;;;27.82;45.00;94999.75;5011140;28;20188;-76
2022/08/03 06:18:53;;;;;;;4.07;3.05;;;;;;;27.94;45.65;94991.00;5010417;28;20589;-76
2022/08/03 06:21:18;;;;;;;11.82;7.45;;;;;;;28.00;44.88;94990.53;5011319;28;20230;-77
2022/08/03 06:23:44;;;;;;;8.80;2.80;;;;;;;28.33;43.51;94992.78;5011080;28;20263;-77
2022/08/03 06:26:10;;;;;;;4.78;2.35;;;;;;;28.61;44.15;95002.19;5011457;28;20234;-77
2022/08/03 06:28:35;;;;;;;7.82;5.35;;;;;;;28.80;43.76;94996.44;5011552;28;20637;-77
2022/08/03 06:31:01;;;;;;;9.18;4.57;;;;;;;29.09;43.77;95001.13;5011277;28;20184;-77
2022/08/03 06:33:27;;;;;;;6.70;3.10;;;;;;;29.15;42.98;94984.34;5011317;28;20200;-77
2022/08/03 06:35:52;;;;;;;8.77;3.30;;;;;;;29.47;43.24;95004.69;5011234;28;20184;-77
2022/08/03 06:38:18;;;;;;;5.35;2.85;;;;;;;29.71;41.96;94998.66;5011234;28;20176;-77
2022/08/03 06:40:43;;;;;;;8.20;3.70;;;;;;;29.89;42.27;94992.00;5011476;28;20637;-77
2022/08/03 06:43:09;;;;;;;5.35;3.47;;;;;;;30.13;41.27;94993.28;5011113;28;20633;-77
2022/08/03 06:45:34;;;;;;;10.38;3.78;;;;;;;30.06;39.26;94993.03;5010693;28;20196;-77
2022/08/03 06:48:00;;;;;;;52.83;6.03;;;;;;;29.54;40.52;94988.69;5011096;28;20177;-77
2022/08/03 06:50:26;;;;;;;27.83;5.03;;;;;;;29.36;41.47;94975.53;5010723;28;20176;-77
2022/08/03 06:52:51;;;;;;;40.40;4.47;;;;;;;29.58;43.23;94992.34;5010845;28;20207;-77
2022/08/03 06:55:17;;;;;;;6.47;2.67;;;;;;;29.76;41.13;94963.16;5011027;28;20239;-77
2022/08/03 06:57:42;;;;;;;67.57;8.60;;;;;;;30.05;41.18;94981.38;5013830;28;20656;-77
2022/08/03 07:00:08;;;;;;;62.92;6.28;;;;;;;30.29;42.45;94975.28;5014899;28;20173;-77
2022/08/03 07:02:34;;;;;;;57.75;7.13;;;;;;;30.63;40.09;94990.50;5014538;28;20180;-76
2022/08/03 07:04:59;;;;;;;62.17;6.43;;;;;;;30.56;40.65;94985.63;5014722;28;20731;-77
2022/08/03 07:07:25;;;;;;;45.13;4.30;;;;;;;30.78;39.68;94989.09;5014729;28;20177;-77
2022/08/03 07:09:50;;;;;;;56.65;5.47;;;;;;;31.04;40.14;94984.19;5014514;28;20267;-76
2022/08/03 07:12:16;;;;;;;25.77;4.20;;;;;;;30.93;38.57;94983.81;5014484;28;20200;-76
2022/08/03 07:14:41;;;;;;;69.35;14.88;;;;;;;30.96;39.36;94990.50;5014450;28;20561;-76
2022/08/03 07:17:07;;;;;;;6.50;2.38;;;;;;;30.95;39.13;94987.00;5014304;28;20311;-76
2022/08/03 07:19:32;;;;;;;4.63;2.28;;;;;;;31.14;39.81;94993.88;5014442;28;20180;-76
2022/08/03 07:21:57;;;;;;;3.65;2.38;;;;;;;31.31;38.38;94980.81;5014543;28;20678;-76
2022/08/03 07:24:23;;;;;;;4.90;1.77;;;;;;;31.48;37.48;94996.94;5014062;28;20216;-77
2022/08/03 07:26:48;;;;;;;12.80;8.43;;;;;;;31.70;37.82;94998.44;5014268;28;20199;-76
2022/08/03 07:29:14;;;;;;;3.72;2.97;;;;;;;31.72;37.44;94990.75;5013750;28;20308;-77
2022/08/03 07:31:40;;;;;;;5.10;2.95;;;;;;;31.18;36.77;94992.03;5013408;28;20204;-77
2022/08/03 07:34:06;;;;;;;2.90;2.60;;;;;;;30.88;39.03;94992.16;5014741;28;20264;-77
2022/08/03 07:36:31;;;;;;;3.15;2.05;;;;;;;31.12;38.74;94994.19;5014285;28;20259;-77
2022/08/03 07:38:57;;;;;;;6.70;2.58;;;;;;;31.62;36.92;94991.19;5014345;28;20177;-78
2022/08/03 07:41:22;;;;;;;4.60;2.22;;;;;;;31.92;36.92;94994.44;5014696;28;20176;-77
2022/08/03 07:43:48;;;;;;;4.13;2.10;;;;;;;32.22;35.08;94998.53;5011648;28;20207;-79
2022/08/03 07:46:13;;;;;;;3.10;2.17;;;;;;;32.51;35.25;94996.63;5013894;28;20207;-76
2022/08/03 07:48:39;;;;;;;4.13;2.15;;;;;;;32.61;34.37;94996.91;5013271;28;20176;-77
2022/08/03 07:51:05;;;;;;;5.85;3.78;;;;;;;32.34;34.97;94989.53;4996118;28;20168;-76
2022/08/03 07:53:30;;;;;;;16.08;3.80;;;;;;;31.89;36.54;94995.16;5013328;28;20275;-76
2022/08/03 07:55:56;;;;;;;7.10;2.95;;;;;;;30.89;37.24;94974.72;5013238;28;20598;-75
2022/08/03 07:58:22;;;;;;;14.98;2.85;;;;;;;31.09;38.93;94987.50;5013338;28;20200;-75
2022/08/03 08:00:49;;;;;;;4.65;2.13;;;;;;;31.73;37.40;94989.63;5013380;28;20275;-76
2022/08/03 08:03:15;;;;;;;7.65;2.80;;;;;;;31.74;36.39;94980.28;5012914;28;20853;-75
2022/08/03 08:05:41;;;;;;;12.57;4.53;;;;;;;31.88;35.73;94992.75;5013287;28;20200;-76
2022/08/03 08:08:06;;;;;;;3.78;1.50;;;;;;;31.60;35.93;94996.16;5011378;28;20218;-76
2022/08/03 08:10:32;;;;;;;12.05;6.70;;;;;;;32.06;33.93;94997.63;5012579;28;20168;-76
2022/08/03 08:12:58;;;;;;;4.53;1.80;;;;;;;32.04;35.29;94994.44;5012214;28;20882;-76
2022/08/03 08:15:24;;;;;;;3.28;1.60;;;;;;;32.27;33.73;95000.19;4995298;28;20183;-75
2022/08/03 08:17:54;;;;;;;3.10;1.90;;;;;;;32.66;33.86;95009.50;5012170;28;20366;-75
2022/08/03 08:20:23;;;;;;;2.08;1.92;;;;;;;33.13;32.95;95009.63;5012682;28;20168;-75
2022/08/03 08:22:49;;;;;;;3.60;1.42;;;;;;;33.38;31.96;95009.53;5012979;28;20641;-75
2022/08/03 08:25:15;;;;;;;1.83;1.70;;;;;;;33.16;31.54;95002.69;5013035;28;20226;-76
2022/08/03 08:27:42;;;;;;;5.68;1.65;;;;;;;32.91;32.91;94993.84;5013300;28;20188;-76
2022/08/03 08:30:09;;;;;;;5.82;2.10;;;;;;;33.28;32.92;95003.44;5013176;28;20149;-76
2022/08/03 08:32:36;;;;;;;3.08;1.80;;;;;;;33.21;31.38;94988.78;5012598;28;20235;-76
2022/08/03 08:35:02;;;;;;;4.20;2.20;;;;;;;33.10;33.03;95001.38;5012686;28;20172;-76
2022/08/03 08:37:27;;;;;;;5.38;2.80;;;;;;;32.91;34.13;94982.94;5013167;28;20176;-79
2022/08/03 08:39:55;;;;;;;4.97;2.15;;;;;;;33.10;34.50;95001.38;5012979;28;20263;-80
2022/08/03 08:42:20;;;;;;;4.15;1.83;;;;;;;33.46;34.29;94994.91;5032607;28;20186;-78
2022/08/03 08:44:46;;;;;;;4.47;1.80;;;;;;;33.68;32.77;94994.25;5012235;28;20268;-77
2022/08/03 08:47:13;;;;;;;2.88;1.63;;;;;;;33.63;32.46;94989.06;4993888;28;20642;-78
2022/08/03 08:49:40;;;;;;;4.75;1.67;;;;;;;33.47;32.30;94985.56;4994045;28;20172;-79
2022/08/03 08:52:07;;;;;;;2.75;1.50;;;;;;;33.30;30.58;94989.41;4994228;28;20185;-79
2022/08/03 08:54:35;;;;;;;3.13;1.38;;;;;;;32.99;30.57;94957.41;4993836;28;20667;-78
2022/08/03 08:57:02;;;;;;;2.70;1.13;;;;;;;32.99;31.74;94987.44;4993685;28;20201;-79
2022/08/03 08:59:31;;;;;;;5.85;1.90;;;;;;;33.09;31.42;94992.38;4993950;28;20181;-78
2022/08/03 09:01:57;;;;;;;2.83;1.60;;;;;;;33.14;33.41;94969.47;4993380;28;20173;-79
2022/08/03 09:04:24;;;;;;;6.35;1.88;;;;;;;32.86;32.68;94975.03;4992304;28;20504;-79
2022/08/03 09:06:51;;;;;;;4.38;1.90;;;;;;;32.51;32.84;94975.59;4991020;28;20208;-79
2022/08/03 09:09:16;;;;;;;2.28;1.67;;;;;;;32.37;33.88;94972.47;4991189;28;20663;-78
2022/08/03 09:11:42;;;;;;;2.50;1.65;;;;;;;32.53;34.19;94977.97;4991132;28;20308;-78
2022/08/03 09:14:09;;;;;;;1.38;1.27;;;;;;;32.52;33.93;94977.16;4990988;28;20173;-78
2022/08/03 09:16:37;;;;;;;3.72;1.92;;;;;;;32.15;33.12;94960.13;4991767;28;20161;-78
2022/08/03 09:19:13;;;;;;;2.00;1.80;;;;;;;32.23;33.17;94961.97;4993271;28;20173;-79
2022/08/03 09:21:39;;;;;;;1.80;1.50;;;;;;;32.39;33.58;94966.66;4992854;28;20173;-79
2022/08/03 09:24:05;;;;;;;1.70;1.35;;;;;;;32.57;34.57;94968.75;4993101;28;20228;-79
2022/08/03 09:26:35;;;;;;;2.28;1.65;;;;;;;32.65;32.50;94971.66;4993320;28;20196;-79
2022/08/03 09:29:08;;;;;;;5.28;1.77;;;;;;;32.50;32.41;94978.69;4976058;28;20278;-79
2022/08/03 09:31:36;;;;;;;1.50;1.40;;;;;;;32.22;33.54;94965.81;4993037;28;20727;-79
2022/08/03 09:34:10;;;;;;;3.20;1.80;;;;;;;32.28;32.85;94969.06;4993199;28;20166;-79
2022/08/03 09:36:50;;;;;;;2.78;1.50;;;;;;;32.11;32.00;94940.16;4993410;28;20196;-79
2022/08/03 09:39:18;;;;;;;2.35;1.42;;;;;;;32.41;31.75;94967.13;4993080;28;20185;-80
2022/08/03 09:42:04;;;;;;;1.55;1.45;;;;;;;32.59;33.11;94968.41;4989806;28;20180;-79
2022/08/03 09:44:38;;;;;;;3.08;1.52;;;;;;;32.79;32.25;94970.16;4992508;28;20242;-78
2022/08/03 09:47:08;;;;;;;3.05;1.95;;;;;;;32.92;31.05;94970.88;5012764;28;20706;-78
2022/08/03 09:49:34;;;;;;;2.08;1.70;;;;;;;32.90;31.25;94970.44;5011273;28;20225;-79
2022/08/03 09:52:10;;;;;;;3.25;1.77;;;;;;;32.80;32.45;94970.94;5024561;28;20215;-79
2022/08/03 09:54:36;;;;;;;1.67;1.58;;;;;;;32.76;31.50;94973.59;5010336;28;20724;-79
2022/08/03 09:57:02;;;;;;;3.80;1.42;;;;;;;32.15;32.22;94943.00;5021692;28;20313;-79
2022/08/03 09:59:29;;;;;;;2.13;1.50;;;;;;;32.01;31.77;94954.25;5011709;28;20192;-78
2022/08/03 10:01:56;;;;;;;4.97;1.33;;;;;;;31.93;31.43;94959.84;5009741;28;20200;-79
2022/08/03 10:04:23;;;;;;;1.55;1.42;;;;;;;31.54;32.51;94961.34;5012693;28;20259;-79
2022/08/03 10:07:04;;;;;;;3.75;1.60;;;;;;;31.58;33.31;94959.50;5011551;28;20180;-79
2022/08/03 10:09:30;;;;;;;2.65;1.38;;;;;;;31.36;32.41;94947.16;5011028;28;20176;-80
2022/08/03 10:11:56;;;;;;;1.40;1.30;;;;;;;31.21;34.64;94945.91;5010782;28;20703;-79
2022/08/03 10:14:22;;;;;;;2.83;1.75;;;;;;;31.39;34.76;94939.13;5010962;28;20191;-78
2022/08/03 10:16:48;;;;;;;2.42;1.85;;;;;;;31.68;33.07;94940.81;5011239;28;20169;-78
2022/08/03 10:19:15;;;;;;;1.55;1.45;;;;;;;31.48;33.75;94941.72;5011773;28;20164;-78
2022/08/03 10:21:54;;;;;;;1.50;1.40;;;;;;;31.53;32.58;94944.19;5011863;28;20251;-78
2022/08/03 10:24:26;;;;;;;2.47;1.73;;;;;;;31.32;33.05;94938.88;5010508;28;20298;-78
2022/08/03 10:27:00;;;;;;;1.90;1.77;;;;;;;31.29;33.50;94938.78;5010502;28;20616;-78
2022/08/03 10:29:27;;;;;;;1.88;1.40;;;;;;;31.26;35.20;94931.28;5010649;28;20176;-78
2022/08/03 10:31:56;;;;;;;1.98;1.73;;;;;;;31.18;34.36;94924.81;5010027;28;20202;-78
2022/08/03 10:34:25;;;;;;;4.85;2.42;;;;;;;31.01;34.27;94931.22;5010620;28;20263;-78
2022/08/03 10:36:55;;;;;;;2.33;1.90;;;;;;;31.10;33.78;94929.22;5010562;28;20165;-78
2022/08/03 10:39:22;;;;;;;2.42;1.77;;;;;;;31.17;34.08;94927.88;5010735;28;20692;-78
2022/08/03 10:41:50;;;;;;;1.98;1.88;;;;;;;31.17;34.10;94936.03;5010657;28;20180;-78
2022/08/03 10:44:22;;;;;;;3.70;2.13;;;;;;;31.08;33.68;94928.78;5010721;28;20615;-78
2022/08/03 10:46:49;;;;;;;5.70;1.95;;;;;;;30.99;33.79;94927.25;5010384;28;20179;-77
2022/08/03 10:49:19;;;;;;;2.08;1.63;;;;;;;30.72;34.72;94923.25;5010421;28;20219;-78
2022/08/03 10:51:46;;;;;;;5.50;1.50;;;;;;;30.73;34.17;94935.72;5010432;28;20180;-78
2022/08/03 10:57:33;;;;;;;1.95;1.52;;;;;;;30.63;34.63;94938.84;5010425;28;20670;-78
2022/08/03 10:57:41;;;;;;;6.18;1.50;;;;;;;30.34;34.63;94942.47;5010413;28;20180;-79
2022/08/03 11:00:08;;;;;;;3.08;1.67;;;;;;;30.15;35.73;94921.22;5010305;28;20164;-79
2022/08/03 11:03:02;;;;;;;2.50;1.40;;;;;;;29.81;35.21;94924.19;5010548;28;20156;-79
2022/08/03 11:05:30;;;;;;;5.57;1.50;;;;;;;29.73;35.96;94898.69;5010291;28;20555;-79
2022/08/03 11:08:18;;;;;;;1.42;1.33;;;;;;;29.96;35.20;94923.63;5010420;28;20251;-79
2022/08/03 11:10:44;;;;;;;2.28;1.42;;;;;;;29.89;35.38;94923.31;5010456;28;20168;-79
2022/08/03 11:13:15;;;;;;;1.38;1.27;;;;;;;29.91;35.92;94915.66;5010123;28;20202;-79
2022/08/03 11:15:45;;;;;;;1.85;1.55;;;;;;;29.75;35.22;94892.94;5010371;28;20256;-79
2022/08/03 11:18:14;;;;;;;3.55;1.50;;;;;;;29.91;36.72;94899.34;5010164;28;20176;-79
2022/08/03 11:20:50;;;;;;;1.50;1.40;;;;;;;30.04;36.43;94881.22;5010449;28;20526;-79
2022/08/03 11:23:18;;;;;;;2.13;1.40;;;;;;;30.42;36.11;94900.03;5010105;28;20757;-79
2022/08/03 11:26:09;;;;;;;2.33;1.60;;;;;;;30.47;35.27;94894.38;4992395;28;20679;-79
2022/08/03 11:28:37;;;;;;;2.17;1.70;;;;;;;30.33;35.65;94873.75;5010171;28;20177;-79
2022/08/03 11:31:21;;;;;;;2.53;1.33;;;;;;;30.58;34.74;94898.31;5010000;28;20199;-79
2022/08/03 14:06:31;;;;;;;3.53;2.15;;;;;;;29.34;37.83;94825.81;5008504;28;20717;-75
2022/08/03 14:08:56;;;;;;;1.80;1.70;;;;;;;29.37;37.17;94830.63;5010437;28;20180;-76
2022/08/03 14:11:22;;;;;;;2.00;1.80;;;;;;;29.44;36.60;94839.81;5010174;28;20172;-76
2022/08/03 14:13:47;;;;;;;1.60;1.50;;;;;;;29.27;36.57;94826.34;5010461;28;20207;-76
2022/08/03 14:16:13;;;;;;;3.92;1.80;;;;;;;29.23;37.84;94839.00;4992610;28;20179;-77